Bkn015

KEY TO DECODE AN ASOS (METAR) OBSERVATION

key to decode an asos (metar) observation metar kabc 121755z auto 21016g24kt 180v240 1sm r11/p6000ft -ra br bkn015 ovc025 06/04 a2990 rmk ao2 pk wnd 20032/25 wshft 1715 vis 3/4v1 1/2 vis 3/4 rwy11 rab07 cig 013v017 cig 017 rwy11 presfr slp125 p0003 60009 t00640036 10066 21012 58033 tsno $ type ...

opwx.db.erau.edu

7 26. CLOUD LAYERS LE V E LS TRACE NONE LIGHT MODERATE INS ...

rem arks of/ c of/ c 3 br bkn015 bkn200 31. altimeter 30.10 29. vsby/ wea ins severe 7 26. cloud layers le v e ls trace none light moderate ins light rime - location chart clear of/ c dest / altn z to

www.rucker.army.mil

LFOB "BEAUVAIS TILLE

... 021500z 17008kt 140v210 8000 -ra sct020 bkn026 09/07 q1008 = lfpb "paris le bourget metar lfpb 021500z 20011kt 9999 sct033 bkn110 11/05 q1009 nosig= taf lfpb 021400z 021524 19010kt 9999 bkn030 becmg 1518 15010kt 7000 -ra bkn015 tempo 1824 4000 ra bkn010= taf lfpb 021100z 021818 15010kt 8000 -ra bkn015 ...

www.harrypilote.com

KOZR YES X LS/LK *TURBULENCE FOR ACFT GROSS WEIGHT LESS THAN ...

... a14 #02-a16 #02-a17 vt: 0401z - ufn vt: 0615z - ufn vt: 0400z - 0830z vanguard s ***for planning only*** bearcat 35005kt 7sm few030 bkn120 nrn 1/2: aft 04z: 35005kt 7sm bkn007 srn 1/2: aft 06z: 35005kt 7sm bkn007 low level wind shear 35005kt 7sm few030 bkn120 aft 06z: 35005kt 7sm bkn015 ...

www.rucker.army.mil

CHANGES TO TERMINAL AERODROME FORECASTS (TAFs)

These changes will also be reflected in the format used for TAFs of validity period shorter than 30 hour. 2.2 Example: 24 hour TAF for EICK: TAF EICK 091055Z 0912/1012 25013KT 9999 SCT012 BKN025 BECMG 0912/0914 21015KT sct010 bkn015 TEMPO 0914/0922 22018G30KT 4000 RA SCT007 BKN010 BECMG 0922/1001 27012kt ...

www.met.ie

METAR/TAF LIST OF ABBREVIATIONS AND ACRONYMS

key to decode an asos (metar) observation metar kabc 121755z auto 21016g24kt 180v240 1sm r11/p6000ft -ra br bkn015 ovc025 06/04 a2990 rmk ao2 pk wnd 20032/25 wshft 1715 vis 3/4v1 1/2 vis 3/4 rwy11 rab07 cig 013v017 cig 017 rwy11 presfr slp125 p0003 60009 t00640036 10066 21012 58033 tsno $ type ...

www.wrh.noaa.gov

ADM Flight Scenario 1

... ksea 202056z 00000kt 10sm -ra bkn037 ovc060 11/08 a2997 rmk rab13 tafs keug 201739z 201818 vrb03kt 3sm br sct004 ovc050 tempo 1820 -ra fm2000 vrb03kt 4sm -ra br bkn012 ovc030 fm0000 19004kt 4sm -shra br bkn025 bkn050 fm0900 vrb03kt 1/4sm fg vv001 fm1600 15004kt 5sm br vcsh bkn015 ...

www.faasafety.gov

Using LAMP Guidance in Flight Planning

... 24008kt 1/4sm dz fg bkn003 bkn008 ovc014 10/09 a2996 speci kcrw 131803z 25007kt 1sm -dz br bkn005 bkn011 ovc018 10/09 a2996 metar kcrw 131854z 25007kt 6sm -dz br bkn009 bkn017 ovc023 10/09 a2995 speci kcrw 131908z 25007kt 7sm -dz sct009 ovc016 10/09 a2996 metar kcrw 131954z 24009kt 7sm -dz few009 bkn015 ...

aviationweather.gov

Sample METAR and Explanation of Formatting and Codes

Sample METAR and Explanation of Formatting and Codes The following METAR is deciphered in detail in the tables below: METAR KOZR 121755Z AUTO 21016G24KT 180V240 1SM R06/P6000 -RA BR BKN015 0VC025 06/04 A2990 RMK A02 PK WND 20032/25 WSHIFT 1715 VIS 3/4 V1 1/2 VIS 3/4 RWY11 RAB07 CIG 013V017 CIG ...

www.th67loadmaster.com

Aircrew Quick Reference to the METAR and TAF Codes

METAR KBLV 011657Z AUTO 25015G30KT 210V290 3/8SM R32L/1000FT FG BKN005 01/M01 A2984 RMK A02 SLP034 SPECI KBLV 011715Z 25015G30KT 210V290 3SM BR BKN015 01/M01 A2984 RMK SLP034 METAR (Aviation Routine Weather Report) refers to a scheduled observation taken between 55-59 minutes past the hour (also referred ...

www.theflightstuff.com

Other sites you could try:

Find videos related to Bkn015